Statia Express — V7TT3 — position and weather

sailwx.info

Track history (hours):
 
Tides and Currents Weather Stations Pressure Air Temp Water Temp Dewpoint Dewpoint Depression Visibility Wind Speed Wind Dir Waves Ship Positions

Statia Express

Last reported at 2017-Jan-21 07:30 UTC. Time now 2017-Jan-21 08:41 UTC.
Position N 18°01' W 063°03'.

Length 28 m; draft 4.1 m.

Type: Tug. MMSI: 538003879.

Date/timePositionNaut miles runAvg speedWind from/ knotsBaromVisibWave heightAir tempDewpointWater temp
2017-Jan-21 07:30N 18°01' W 063°03'0 0.1
2017-Jan-21 06:30N 18°01' W 063°03'0 0.0
2017-Jan-21 04:07N 18°01' W 063°03'0 0.0
2017-Jan-21 03:32N 18°01' W 063°03'0 0.0
2017-Jan-21 02:32N 18°01' W 063°03'0 0.4
2017-Jan-21 01:27N 18°01' W 063°03'1 0.7
2017-Jan-21 00:32N 18°01' W 063°03'2 1.8
2017-Jan-20 23:32N 18°01' W 063°05'0 0.0
2017-Jan-20 22:22N 18°01' W 063°05'0 0.0
2017-Jan-20 21:21N 18°01' W 063°05'0 0.0
2017-Jan-20 19:30N 18°01' W 063°05'0 0.0
2017-Jan-20 18:33N 18°01' W 063°05'0 0.0
2017-Jan-20 17:28N 18°01' W 063°05'0 0.0
2017-Jan-20 16:31N 18°01' W 063°05'0 0.0
2017-Jan-20 15:29N 18°01' W 063°05'0 0.0
2017-Jan-20 14:33N 18°01' W 063°05'0 0.0
2017-Jan-20 13:32N 18°01' W 063°05'0 0.0
2017-Jan-20 12:29N 18°01' W 063°05'0 0.0
2017-Jan-20 11:28N 18°01' W 063°05'0 0.0
2017-Jan-20 10:32N 18°01' W 063°05'2 1.6
2017-Jan-20 09:21N 18°01' W 063°03'2 0.7
2017-Jan-20 06:33N 17°59' W 063°04'5 5.0
2017-Jan-20 05:33N 17°54' W 063°04'6 6.0
2017-Jan-20 04:31N 17°48' W 063°04'  
Track history (hours):
 
Tides and Currents Weather Stations Pressure Air Temp Water Temp Dewpoint Dewpoint Depression Visibility Wind Speed Wind Dir Waves Ship Positions

Statia Express

Last reported at 2017-Jan-21 07:30 UTC. Time now 2017-Jan-21 08:41 UTC.
Position N 18°01' W 063°03'.

Length 28 m; draft 4.1 m.

Type: Tug. MMSI: 538003879.

Date/timePositionNaut miles runAvg speedWind from/ knotsBaromVisibWave heightAir tempDewpointWater temp
2017-Jan-21 07:30N 18°01' W 063°03'0 0.1
2017-Jan-21 06:30N 18°01' W 063°03'0 0.0
2017-Jan-21 04:07N 18°01' W 063°03'0 0.0
2017-Jan-21 03:32N 18°01' W 063°03'0 0.0
2017-Jan-21 02:32N 18°01' W 063°03'0 0.4
2017-Jan-21 01:27N 18°01' W 063°03'1 0.7
2017-Jan-21 00:32N 18°01' W 063°03'2 1.8
2017-Jan-20 23:32N 18°01' W 063°05'0 0.0
2017-Jan-20 22:22N 18°01' W 063°05'0 0.0
2017-Jan-20 21:21N 18°01' W 063°05'0 0.0
2017-Jan-20 19:30N 18°01' W 063°05'0 0.0
2017-Jan-20 18:33N 18°01' W 063°05'0 0.0
2017-Jan-20 17:28N 18°01' W 063°05'0 0.0
2017-Jan-20 16:31N 18°01' W 063°05'0 0.0
2017-Jan-20 15:29N 18°01' W 063°05'0 0.0
2017-Jan-20 14:33N 18°01' W 063°05'0 0.0
2017-Jan-20 13:32N 18°01' W 063°05'0 0.0
2017-Jan-20 12:29N 18°01' W 063°05'0 0.0
2017-Jan-20 11:28N 18°01' W 063°05'0 0.0
2017-Jan-20 10:32N 18°01' W 063°05'2 1.6
2017-Jan-20 09:21N 18°01' W 063°03'2 0.7
2017-Jan-20 06:33N 17°59' W 063°04'5 5.0
2017-Jan-20 05:33N 17°54' W 063°04'6 6.0
2017-Jan-20 04:31N 17°48' W 063°04'  

Dump ship's entire track history